createdAt,value
2023-03-07T00:01:55.681Z,96938.16
2023-03-07T00:04:26.232Z,96937.34
2023-03-07T00:06:59.069Z,96935.66
2023-03-07T00:09:32.138Z,96937.56
2023-03-07T00:12:02.255Z,96937.88
2023-03-07T00:14:33.108Z,96935.34
2023-03-07T00:17:03.313Z,96939.41
2023-03-07T00:19:33.515Z,96935.06
2023-03-07T00:22:03.572Z,96940.38
2023-03-07T00:24:36.326Z,96937.38
2023-03-07T00:27:07.757Z,96931.81
2023-03-07T00:29:38.268Z,96934.72
2023-03-07T00:32:09.301Z,96941.00
2023-03-07T00:34:39.552Z,96931.38
2023-03-07T00:37:09.590Z,96933.41
2023-03-07T00:39:42.644Z,96927.13
2023-03-07T00:42:13.127Z,96928.56
2023-03-07T00:44:43.477Z,96928.88
2023-03-07T00:47:13.479Z,96924.56
2023-03-07T00:49:43.826Z,96922.44
2023-03-07T00:52:14.040Z,96922.53
2023-03-07T00:54:46.940Z,96914.84
2023-03-07T00:57:17.170Z,96907.13
2023-03-07T00:59:47.984Z,96904.75
2023-03-07T01:02:18.496Z,96906.56
2023-03-07T01:04:49.096Z,96898.72
2023-03-07T01:07:19.305Z,96898.78
2023-03-07T01:09:54.333Z,96885.72
2023-03-07T01:12:25.140Z,96890.34
2023-03-07T01:14:55.607Z,96889.22
2023-03-07T01:17:25.820Z,96883.84
2023-03-07T01:19:55.860Z,96884.09
2023-03-07T01:22:26.198Z,96890.34
2023-03-07T01:24:59.108Z,96886.63
2023-03-07T01:27:29.703Z,96877.84
2023-03-07T01:30:00.315Z,96880.25
2023-03-07T01:32:30.594Z,96879.16
2023-03-07T01:35:00.667Z,96878.94
2023-03-07T01:37:30.769Z,96880.84
2023-03-07T01:40:05.070Z,96874.69
2023-03-07T01:42:35.337Z,96875.88
2023-03-07T01:45:30.701Z,96868.47
2023-03-07T01:48:00.819Z,96865.75
2023-03-07T01:50:32.008Z,96866.09
2023-03-07T01:53:03.995Z,96865.44
2023-03-07T01:55:39.436Z,96857.06
2023-03-07T01:58:21.620Z,96851.47
2023-03-07T02:00:52.480Z,96858.03
2023-03-07T02:03:33.317Z,96853.75
2023-03-07T02:06:10.585Z,96850.09
2023-03-07T02:08:42.989Z,96861.66
2023-03-07T02:11:16.492Z,96848.34
2023-03-07T02:13:47.085Z,96846.31
2023-03-07T02:16:17.747Z,96849.28
2023-03-07T02:18:52.509Z,96846.75
2023-03-07T02:21:42.061Z,96853.25
2023-03-07T02:24:25.772Z,96848.22
2023-03-07T02:26:59.804Z,96845.56
2023-03-07T02:29:30.365Z,96846.31
2023-03-07T02:32:00.465Z,96845.31
2023-03-07T02:34:33.761Z,96847.00
2023-03-07T02:37:30.630Z,96844.41
2023-03-07T02:40:07.548Z,96844.53
2023-03-07T02:42:44.901Z,96843.19
2023-03-07T02:45:21.533Z,96844.28
2023-03-07T02:47:51.747Z,96843.56
2023-03-07T02:50:22.448Z,96828.97
2023-03-07T02:52:55.373Z,96835.13
2023-03-07T02:55:25.995Z,96832.00
2023-03-07T02:58:05.880Z,96824.50
2023-03-07T03:00:37.161Z,96818.50
2023-03-07T03:03:08.122Z,96816.59
2023-03-07T03:05:38.459Z,96807.75
2023-03-07T03:08:08.986Z,96813.66
2023-03-07T03:10:39.520Z,96815.84
2023-03-07T03:13:12.502Z,96813.66
2023-03-07T03:15:45.109Z,96814.66
2023-03-07T03:18:15.767Z,96812.09
2023-03-07T03:20:46.542Z,96815.28
2023-03-07T03:23:16.756Z,96815.19
2023-03-07T03:25:47.236Z,96808.78
2023-03-07T03:28:20.247Z,96797.34
2023-03-07T03:31:00.936Z,96796.84
2023-03-07T03:33:33.259Z,96794.56
2023-03-07T03:36:10.193Z,96797.97
2023-03-07T03:38:40.831Z,96797.44
2023-03-07T03:41:17.774Z,96797.63
2023-03-07T03:43:52.481Z,96795.88
2023-03-07T03:46:22.899Z,96799.16
2023-03-07T03:48:57.340Z,96793.97
2023-03-07T03:51:30.901Z,96791.69
2023-03-07T03:54:01.233Z,96793.97
2023-03-07T03:56:31.889Z,96797.28
2023-03-07T03:59:04.674Z,96789.03
2023-03-07T04:01:35.130Z,96791.66
2023-03-07T04:04:05.766Z,96788.16
2023-03-07T04:06:38.100Z,96791.47
2023-03-07T04:09:09.291Z,96795.28
2023-03-07T04:11:43.057Z,96784.19
2023-03-07T04:14:16.323Z,96783.06
2023-03-07T04:16:47.355Z,96790.25
2023-03-07T04:19:18.376Z,96778.28
2023-03-07T04:21:48.637Z,96778.72
2023-03-07T04:24:19.995Z,96775.66
2023-03-07T04:26:50.443Z,96778.72
2023-03-07T04:29:23.393Z,96767.72
2023-03-07T04:31:57.749Z,96768.41
2023-03-07T04:34:28.266Z,96765.00
2023-03-07T04:36:58.542Z,96769.59
2023-03-07T04:39:29.096Z,96767.50
2023-03-07T04:41:59.218Z,96764.22
2023-03-07T04:44:36.233Z,96758.00
2023-03-07T04:47:06.412Z,96763.78
2023-03-07T04:49:39.089Z,96753.66
2023-03-07T04:52:10.026Z,96756.53
2023-03-07T04:54:40.990Z,96759.88
2023-03-07T04:57:12.077Z,96748.00
2023-03-07T04:59:45.394Z,96753.44
2023-03-07T05:02:16.588Z,96755.56
2023-03-07T05:04:46.711Z,96745.63
2023-03-07T05:07:18.176Z,96744.41
2023-03-07T05:09:48.530Z,96743.38
2023-03-07T05:12:18.912Z,96747.97
2023-03-07T05:14:51.803Z,96745.81
2023-03-07T05:17:23.150Z,96747.38
2023-03-07T05:19:53.573Z,96749.28
2023-03-07T05:22:24.353Z,96752.22
2023-03-07T05:24:54.393Z,96744.72
2023-03-07T05:27:24.654Z,96734.78
2023-03-07T05:29:57.563Z,96733.25
2023-03-07T05:32:27.796Z,96735.06
2023-03-07T05:34:58.299Z,96728.81
2023-03-07T05:37:29.017Z,96736.88
2023-03-07T05:39:59.597Z,96732.72
2023-03-07T05:42:29.917Z,96730.81
2023-03-07T05:45:02.601Z,96731.16
2023-03-07T05:47:33.304Z,96735.59
2023-03-07T05:50:03.600Z,96732.72
2023-03-07T05:52:33.821Z,96733.25
2023-03-07T05:55:04.562Z,96732.09
2023-03-07T05:57:35.764Z,96733.25
2023-03-07T06:00:11.811Z,96724.66
2023-03-07T06:02:48.133Z,96724.13
2023-03-07T06:05:19.963Z,96729.09
2023-03-07T06:07:50.455Z,96724.66
2023-03-07T06:10:21.162Z,96728.22
2023-03-07T06:12:53.790Z,96729.00
2023-03-07T06:15:26.674Z,96714.16
2023-03-07T06:18:03.858Z,96712.84
2023-03-07T06:20:33.870Z,96710.84
2023-03-07T06:23:06.812Z,96709.56
2023-03-07T06:25:38.521Z,96708.00
2023-03-07T06:28:08.681Z,96707.22
2023-03-07T06:30:41.469Z,96708.16
2023-03-07T06:33:12.026Z,96710.41
2023-03-07T06:35:44.781Z,96714.63
2023-03-07T06:38:18.597Z,96707.59
2023-03-07T06:40:57.884Z,96707.28
2023-03-07T06:43:28.145Z,96709.91
2023-03-07T06:46:01.385Z,96710.38
2023-03-07T06:48:37.200Z,96715.53
2023-03-07T06:51:11.761Z,96708.22
2023-03-07T06:53:44.596Z,96710.97
2023-03-07T06:56:15.122Z,96710.47
2023-03-07T06:58:46.581Z,96712.97
2023-03-07T07:01:23.569Z,96713.88
2023-03-07T07:03:55.924Z,96715.66
2023-03-07T07:06:26.377Z,96723.47
2023-03-07T07:08:58.616Z,96722.22
2023-03-07T07:11:33.043Z,96724.41
2023-03-07T07:14:04.587Z,96716.84
2023-03-07T07:16:37.996Z,96710.06
2023-03-07T07:19:08.984Z,96723.63
2023-03-07T07:21:39.419Z,96717.59
2023-03-07T07:24:10.336Z,96715.72
2023-03-07T07:26:41.025Z,96713.78
2023-03-07T07:29:11.686Z,96702.81
2023-03-07T07:31:45.383Z,96715.16
2023-03-07T07:34:16.043Z,96712.34
2023-03-07T07:36:46.153Z,96712.97
2023-03-07T07:39:17.821Z,96707.56
2023-03-07T07:41:49.999Z,96715.34
2023-03-07T07:44:23.168Z,96723.53
2023-03-07T07:46:59.992Z,96728.97
2023-03-07T07:49:30.441Z,96720.97
2023-03-07T07:52:00.575Z,96718.97
2023-03-07T07:54:30.935Z,96721.19
2023-03-07T07:57:01.071Z,96707.72
2023-03-07T07:59:31.893Z,96727.97
2023-03-07T08:02:04.560Z,96721.66
2023-03-07T08:04:35.877Z,96720.34
2023-03-07T08:07:06.312Z,96722.44
2023-03-07T08:09:37.176Z,96714.06
2023-03-07T08:12:08.458Z,96708.28
2023-03-07T08:14:39.256Z,96698.50
2023-03-07T08:17:12.154Z,96707.22
2023-03-07T08:19:42.322Z,96707.22
2023-03-07T08:22:12.441Z,96702.31
2023-03-07T08:24:43.833Z,96701.81
2023-03-07T08:27:13.868Z,96712.72
2023-03-07T08:29:44.350Z,96705.56
2023-03-07T08:32:18.348Z,96696.31
2023-03-07T08:34:49.035Z,96688.06
2023-03-07T08:37:19.166Z,96687.22
2023-03-07T08:39:49.749Z,96693.56
2023-03-07T08:42:20.854Z,96690.88
2023-03-07T08:44:50.943Z,96696.41
2023-03-07T08:47:24.459Z,96685.28
2023-03-07T08:49:54.486Z,96688.63
2023-03-07T08:52:24.573Z,96687.13
2023-03-07T08:54:54.755Z,96685.41
2023-03-07T08:57:25.602Z,96680.34
2023-03-07T08:59:55.902Z,96684.84
2023-03-07T09:02:28.614Z,96689.59
2023-03-07T09:04:58.854Z,96678.13
2023-03-07T09:07:30.112Z,96672.00
2023-03-07T09:10:00.380Z,96678.34
2023-03-07T09:12:31.010Z,96675.94
2023-03-07T09:15:00.980Z,96670.06
2023-03-07T09:17:34.441Z,96672.50
2023-03-07T09:20:05.395Z,96668.13
2023-03-07T09:22:35.872Z,96666.22
2023-03-07T09:25:07.024Z,96659.66
2023-03-07T09:27:37.434Z,96656.94
2023-03-07T09:30:09.893Z,96651.59
2023-03-07T09:32:43.589Z,96653.88
2023-03-07T09:35:14.512Z,96648.56
2023-03-07T09:37:45.275Z,96656.84
2023-03-07T09:40:23.794Z,96661.72
2023-03-07T09:43:07.339Z,96664.50
2023-03-07T09:45:53.431Z,96658.13
2023-03-07T09:48:56.596Z,96648.88
2023-03-07T09:51:34.489Z,96654.03
2023-03-07T09:54:13.657Z,96652.75
2023-03-07T09:56:50.778Z,96654.25
2023-03-07T09:59:26.923Z,96651.25
2023-03-07T10:02:13.936Z,96648.66
2023-03-07T10:04:57.755Z,96647.59
2023-03-07T10:07:29.734Z,96647.47
2023-03-07T10:10:05.269Z,96651.75
2023-03-07T10:13:12.592Z,96650.25
2023-03-07T10:15:50.471Z,96662.41
2023-03-07T10:18:50.054Z,96647.81
2023-03-07T10:21:36.115Z,96651.16
2023-03-07T10:24:40.235Z,96644.16
2023-03-07T10:27:13.246Z,96640.97
2023-03-07T10:29:50.906Z,96641.81
2023-03-07T10:32:38.689Z,96648.81
2023-03-07T10:35:21.443Z,96642.97
2023-03-07T10:38:00.358Z,96637.75
2023-03-07T10:40:37.822Z,96638.50
2023-03-07T10:43:09.470Z,96630.56
2023-03-07T10:45:40.428Z,96624.69
2023-03-07T10:48:20.785Z,96635.50
2023-03-07T10:51:04.411Z,96624.34
2023-03-07T10:53:42.179Z,96620.91
2023-03-07T10:56:17.060Z,96614.94
2023-03-07T10:59:04.248Z,96622.91
2023-03-07T11:01:36.571Z,96621.94
2023-03-07T11:04:09.528Z,96615.94
2023-03-07T11:06:44.685Z,96618.25
2023-03-07T11:09:27.815Z,96616.13
2023-03-07T11:12:01.570Z,96607.00
2023-03-07T11:14:32.423Z,96611.06
2023-03-07T11:17:05.300Z,96610.13
2023-03-07T11:19:43.747Z,96601.94
2023-03-07T11:22:28.566Z,96590.84
2023-03-07T11:25:19.114Z,96591.59
2023-03-07T11:27:56.497Z,96587.72
2023-03-07T11:30:33.177Z,96591.63
2023-03-07T11:33:18.337Z,96587.34
2023-03-07T11:36:04.916Z,96584.81
2023-03-07T11:39:02.729Z,96578.00
2023-03-07T11:41:42.509Z,96585.78
2023-03-07T11:44:38.889Z,96596.47
2023-03-07T11:47:39.858Z,96584.59
2023-03-07T11:50:25.414Z,96577.63
2023-03-07T11:53:30.949Z,96586.97
2023-03-07T11:56:26.285Z,96587.75
2023-03-07T11:59:52.153Z,96587.34
2023-03-07T12:03:03.201Z,96597.44
2023-03-07T12:05:52.920Z,96587.94
2023-03-07T12:08:55.107Z,96593.00
2023-03-07T12:11:44.642Z,96586.38
2023-03-07T12:14:29.820Z,96580.34
2023-03-07T12:17:17.776Z,96578.00
2023-03-07T12:20:28.730Z,96580.75
2023-03-07T12:23:12.892Z,96575.69
2023-03-07T12:25:49.331Z,96572.00
2023-03-07T12:28:28.924Z,96564.75
2023-03-07T12:31:11.632Z,96555.78
2023-03-07T12:34:06.515Z,96548.00
2023-03-07T12:36:47.286Z,96554.31
2023-03-07T12:39:27.603Z,96541.03
2023-03-07T12:42:08.884Z,96537.53
2023-03-07T12:44:45.898Z,96525.50
2023-03-07T12:47:26.591Z,96519.38
2023-03-07T12:50:07.737Z,96503.06
2023-03-07T12:52:46.469Z,96499.47
2023-03-07T12:55:28.068Z,96490.72
2023-03-07T12:58:09.733Z,96488.38
2023-03-07T13:00:46.796Z,96480.66
2023-03-07T13:03:29.352Z,96477.03
2023-03-07T13:06:02.102Z,96476.63
2023-03-07T13:08:32.985Z,96486.81
2023-03-07T13:11:03.428Z,96474.13
2023-03-07T13:13:56.201Z,96489.56
2023-03-07T13:16:44.135Z,96490.06
2023-03-07T13:20:01.651Z,96478.91
2023-03-07T13:23:14.673Z,96487.00
2023-03-07T13:26:05.179Z,96478.31
2023-03-07T13:28:45.870Z,96478.91
2023-03-07T13:31:47.181Z,96483.66
2023-03-07T13:34:53.429Z,96484.34
2023-03-07T13:38:03.864Z,96473.00
2023-03-07T13:40:58.613Z,96473.84
2023-03-07T13:44:00.332Z,96450.19
2023-03-07T13:46:52.454Z,96460.28
2023-03-07T13:49:47.953Z,96457.81
2023-03-07T13:52:45.529Z,96453.22
2023-03-07T13:55:27.782Z,96463.91
2023-03-07T13:58:04.341Z,96461.25
2023-03-07T14:00:43.585Z,96465.88
2023-03-07T14:03:29.462Z,96464.97
2023-03-07T14:06:07.219Z,96470.94
2023-03-07T14:08:38.571Z,96467.16
2023-03-07T14:11:24.418Z,96476.88
2023-03-07T14:14:28.396Z,96475.97
2023-03-07T14:17:18.946Z,96475.91
2023-03-07T14:20:09.537Z,96485.13
2023-03-07T14:22:58.035Z,96479.94
2023-03-07T14:25:30.271Z,96476.19
2023-03-07T14:28:05.655Z,96481.94
2023-03-07T14:30:40.667Z,96493.41
2023-03-07T14:33:21.122Z,96484.53
2023-03-07T14:35:51.199Z,96481.09
2023-03-07T14:38:26.239Z,96476.78
2023-03-07T14:41:29.703Z,96480.41
2023-03-07T14:44:23.180Z,96485.47
2023-03-07T14:47:11.879Z,96486.16
2023-03-07T14:49:49.503Z,96485.25
2023-03-07T14:52:30.419Z,96475.75
2023-03-07T14:55:05.774Z,96479.63
2023-03-07T14:57:43.364Z,96466.72
2023-03-07T15:00:29.427Z,96476.63
2023-03-07T15:03:04.306Z,96472.72
2023-03-07T15:05:37.682Z,96470.38
2023-03-07T15:08:21.869Z,96463.84
2023-03-07T15:10:58.726Z,96464.19
2023-03-07T15:13:35.999Z,96463.44
2023-03-07T15:16:14.700Z,96465.06
2023-03-07T15:18:52.722Z,96455.13
2023-03-07T15:21:27.140Z,96466.75
2023-03-07T15:24:00.624Z,96457.88
2023-03-07T15:26:32.515Z,96466.75
2023-03-07T15:29:05.749Z,96459.06
2023-03-07T15:31:54.896Z,96451.00
2023-03-07T15:34:30.928Z,96457.22
2023-03-07T15:37:23.622Z,96455.69
2023-03-07T15:40:03.047Z,96455.09
2023-03-07T15:42:34.859Z,96461.75
2023-03-07T15:45:08.248Z,96457.25
2023-03-07T15:47:43.532Z,96459.38
2023-03-07T15:50:28.417Z,96454.09
2023-03-07T15:53:09.143Z,96453.41
2023-03-07T15:55:42.346Z,96457.09
2023-03-07T15:58:17.592Z,96470.16
2023-03-07T16:00:47.554Z,96457.75
2023-03-07T16:03:30.077Z,96450.78
2023-03-07T16:06:07.449Z,96454.53
2023-03-07T16:08:37.713Z,96447.56
2023-03-07T16:11:10.443Z,96449.50
2023-03-07T16:13:46.546Z,96456.91
2023-03-07T16:16:24.185Z,96459.66
2023-03-07T16:18:59.697Z,96450.75
2023-03-07T16:21:30.434Z,96459.44
2023-03-07T16:24:00.835Z,96462.75
2023-03-07T16:26:31.975Z,96463.34
2023-03-07T16:29:03.864Z,96463.50
2023-03-07T16:31:34.071Z,96465.44
2023-03-07T16:34:15.129Z,96471.50
2023-03-07T16:36:47.483Z,96471.91
2023-03-07T16:39:18.717Z,96478.00
2023-03-07T16:41:52.382Z,96481.94
2023-03-07T16:44:25.202Z,96478.47
2023-03-07T16:47:05.249Z,96470.31
2023-03-07T16:49:38.237Z,96471.91
2023-03-07T16:52:09.946Z,96465.91
2023-03-07T16:54:40.441Z,96476.41
2023-03-07T16:57:15.944Z,96482.78
2023-03-07T16:59:49.971Z,96487.09
2023-03-07T17:02:23.402Z,96492.69
2023-03-07T17:04:56.253Z,96494.22
2023-03-07T17:07:27.348Z,96490.94
2023-03-07T17:09:58.559Z,96496.91
2023-03-07T17:12:29.589Z,96498.25
2023-03-07T17:15:01.143Z,96502.69
2023-03-07T17:17:38.017Z,96498.94
2023-03-07T17:20:18.132Z,96489.94
2023-03-07T17:22:48.768Z,96501.53
2023-03-07T17:25:20.327Z,96499.78
2023-03-07T17:27:56.987Z,96509.03
2023-03-07T17:30:30.299Z,96505.13
2023-03-07T17:33:01.332Z,96509.91
2023-03-07T17:35:34.015Z,96520.13
2023-03-07T17:38:04.227Z,96532.63
2023-03-07T17:40:34.400Z,96534.38
2023-03-07T17:43:04.858Z,96533.47
2023-03-07T17:45:34.971Z,96536.00
2023-03-07T17:48:05.085Z,96536.28
2023-03-07T17:50:38.273Z,96541.53
2023-03-07T17:53:08.626Z,96545.34
2023-03-07T17:55:41.097Z,96552.63
2023-03-07T17:58:14.326Z,96556.03
2023-03-07T18:00:44.645Z,96556.69
2023-03-07T18:03:14.968Z,96557.22
2023-03-07T18:05:47.785Z,96558.28
2023-03-07T18:08:18.054Z,96557.03
2023-03-07T18:10:48.290Z,96560.63
2023-03-07T18:13:18.718Z,96571.28
2023-03-07T18:15:49.439Z,96579.47
2023-03-07T18:18:19.558Z,96578.56
2023-03-07T18:21:00.452Z,96581.75
2023-03-07T18:23:30.992Z,96590.50
2023-03-07T18:26:02.729Z,96582.75
2023-03-07T18:28:54.211Z,96588.00
2023-03-07T18:31:28.986Z,96585.69
2023-03-07T18:34:00.982Z,96590.72
2023-03-07T18:36:34.002Z,96590.03
2023-03-07T18:39:04.698Z,96584.41
2023-03-07T18:41:35.134Z,96592.50
2023-03-07T18:44:05.901Z,96597.94
2023-03-07T18:46:37.444Z,96602.44
2023-03-07T18:49:08.049Z,96608.16
2023-03-07T18:51:43.126Z,96616.06
2023-03-07T18:54:14.154Z,96601.91
2023-03-07T18:56:47.499Z,96594.50
2023-03-07T18:59:18.692Z,96587.28
2023-03-07T19:01:50.425Z,96585.53
2023-03-07T19:04:21.504Z,96588.38
2023-03-07T19:06:55.178Z,96587.00
2023-03-07T19:09:26.203Z,96586.06
2023-03-07T19:11:56.544Z,96592.47
2023-03-07T19:14:26.926Z,96597.47
2023-03-07T19:16:58.285Z,96593.78
2023-03-07T19:19:28.427Z,96599.84
2023-03-07T19:22:01.253Z,96603.34
2023-03-07T19:24:31.942Z,96604.94
2023-03-07T19:27:01.979Z,96610.97
2023-03-07T19:29:32.012Z,96607.84
2023-03-07T19:32:02.206Z,96605.25
2023-03-07T19:34:32.204Z,96601.06
2023-03-07T19:37:05.791Z,96602.22
2023-03-07T19:39:37.147Z,96596.47
2023-03-07T19:42:07.796Z,96609.31
2023-03-07T19:44:38.283Z,96610.84
2023-03-07T19:47:08.480Z,96606.56
2023-03-07T19:49:38.921Z,96609.66
2023-03-07T19:52:11.744Z,96612.81
2023-03-07T19:54:42.174Z,96604.63
2023-03-07T19:57:16.147Z,96611.00
2023-03-07T19:59:46.489Z,96620.53
2023-03-07T20:02:16.982Z,96607.31
2023-03-07T20:04:47.139Z,96614.88
2023-03-07T20:07:20.254Z,96607.34
2023-03-07T20:09:54.464Z,96599.53
2023-03-07T20:12:24.704Z,96613.28
2023-03-07T20:14:55.163Z,96619.50
2023-03-07T20:17:26.279Z,96619.88
2023-03-07T20:19:58.144Z,96622.50
2023-03-07T20:22:31.647Z,96632.34
2023-03-07T20:25:01.844Z,96635.41
2023-03-07T20:27:32.263Z,96627.66
2023-03-07T20:30:02.975Z,96628.75
2023-03-07T20:32:33.967Z,96636.81
2023-03-07T20:35:04.834Z,96635.66
2023-03-07T20:37:38.763Z,96635.72
2023-03-07T20:40:12.014Z,96638.06
2023-03-07T20:42:42.318Z,96635.53
2023-03-07T20:45:13.969Z,96644.63
2023-03-07T20:47:44.557Z,96644.25
2023-03-07T20:50:15.297Z,96638.44
2023-03-07T20:52:48.362Z,96637.44
2023-03-07T20:55:18.579Z,96645.81
2023-03-07T20:57:50.661Z,96643.84
2023-03-07T21:00:22.639Z,96660.31
2023-03-07T21:03:05.189Z,96663.97
2023-03-07T21:05:36.230Z,96665.41
2023-03-07T21:08:10.316Z,96661.50
2023-03-07T21:10:40.391Z,96665.41
2023-03-07T21:13:13.035Z,96678.97
2023-03-07T21:15:43.949Z,96674.88
2023-03-07T21:18:14.087Z,96668.53
2023-03-07T21:20:44.536Z,96670.13
2023-03-07T21:23:17.772Z,96678.19
2023-03-07T21:25:48.549Z,96671.78
2023-03-07T21:28:18.845Z,96669.13
2023-03-07T21:30:49.718Z,96672.41
2023-03-07T21:33:20.144Z,96675.47
2023-03-07T21:35:50.953Z,96684.13
2023-03-07T21:38:23.685Z,96682.75
2023-03-07T21:40:54.114Z,96684.38
2023-03-07T21:43:25.021Z,96690.09
2023-03-07T21:45:56.324Z,96702.38
2023-03-07T21:48:27.028Z,96700.06
2023-03-07T21:50:57.874Z,96704.41
2023-03-07T21:53:31.790Z,96711.13
2023-03-07T21:56:04.797Z,96700.19
2023-03-07T21:58:36.374Z,96696.69
2023-03-07T22:01:14.974Z,96709.78
2023-03-07T22:03:45.423Z,96715.66
2023-03-07T22:06:18.202Z,96716.84
2023-03-07T22:08:51.598Z,96720.72
2023-03-07T22:11:21.836Z,96721.66
2023-03-07T22:13:52.352Z,96726.69
2023-03-07T22:16:24.106Z,96722.31
2023-03-07T22:18:59.370Z,96728.81
2023-03-07T22:21:29.823Z,96729.47
2023-03-07T22:24:02.501Z,96726.13
2023-03-07T22:26:35.136Z,96736.88
2023-03-07T22:29:05.933Z,96732.59
2023-03-07T22:31:36.163Z,96740.38
2023-03-07T22:34:06.639Z,96737.91
2023-03-07T22:36:36.771Z,96741.81
2023-03-07T22:39:09.898Z,96737.38
2023-03-07T22:41:40.173Z,96746.81
2023-03-07T22:44:10.267Z,96741.66
2023-03-07T22:46:40.672Z,96739.03
2023-03-07T22:49:13.107Z,96739.78
2023-03-07T22:51:43.317Z,96739.47
2023-03-07T22:54:16.341Z,96737.88
2023-03-07T22:56:46.720Z,96731.44
2023-03-07T22:59:17.474Z,96733.31
2023-03-07T23:01:48.164Z,96740.50
2023-03-07T23:04:18.288Z,96736.06
2023-03-07T23:06:48.800Z,96740.19
2023-03-07T23:09:21.989Z,96740.84
2023-03-07T23:11:52.022Z,96728.59
2023-03-07T23:14:22.097Z,96728.59
2023-03-07T23:16:52.658Z,96727.78
2023-03-07T23:19:22.974Z,96728.16
2023-03-07T23:21:53.198Z,96730.78
2023-03-07T23:24:26.313Z,96733.13
2023-03-07T23:26:56.767Z,96738.34
2023-03-07T23:29:26.988Z,96739.31
2023-03-07T23:31:57.203Z,96732.59
2023-03-07T23:34:27.672Z,96728.22
2023-03-07T23:36:57.804Z,96729.69
2023-03-07T23:39:30.660Z,96726.75
2023-03-07T23:42:00.855Z,96720.91
2023-03-07T23:44:31.214Z,96723.56
2023-03-07T23:47:01.393Z,96730.97
2023-03-07T23:49:31.588Z,96738.63
2023-03-07T23:52:01.655Z,96746.44
2023-03-07T23:54:34.854Z,96748.69
2023-03-07T23:57:05.022Z,96744.78
2023-03-07T23:59:35.118Z,96745.06
